sensor_id;sensor_type;location;lat;lon;timestamp;P1;durP1;ratioP1;P2;durP2;ratioP2
16075;SDS011;8142;48.242;11.644;2023-04-24T00:00:30;2.90;;;1.27;;
16075;SDS011;8142;48.242;11.644;2023-04-24T00:02:56;3.23;;;1.50;;
16075;SDS011;8142;48.242;11.644;2023-04-24T00:05:23;1.40;;;1.30;;
16075;SDS011;8142;48.242;11.644;2023-04-24T00:07:49;1.37;;;1.27;;
16075;SDS011;8142;48.242;11.644;2023-04-24T00:10:19;3.70;;;1.40;;
16075;SDS011;8142;48.242;11.644;2023-04-24T00:12:45;1.50;;;1.40;;
16075;SDS011;8142;48.242;11.644;2023-04-24T00:15:12;1.90;;;1.20;;
16075;SDS011;8142;48.242;11.644;2023-04-24T00:17:38;2.70;;;1.20;;
16075;SDS011;8142;48.242;11.644;2023-04-24T00:20:04;1.37;;;1.23;;
16075;SDS011;8142;48.242;11.644;2023-04-24T00:22:32;2.73;;;1.30;;
16075;SDS011;8142;48.242;11.644;2023-04-24T00:24:58;1.30;;;1.20;;
16075;SDS011;8142;48.242;11.644;2023-04-24T00:27:24;1.10;;;1.10;;
16075;SDS011;8142;48.242;11.644;2023-04-24T00:29:50;2.77;;;1.27;;
16075;SDS011;8142;48.242;11.644;2023-04-24T00:32:16;1.00;;;1.00;;
16075;SDS011;8142;48.242;11.644;2023-04-24T00:34:43;3.10;;;1.30;;
16075;SDS011;8142;48.242;11.644;2023-04-24T00:37:11;1.47;;;1.17;;
16075;SDS011;8142;48.242;11.644;2023-04-24T00:39:37;1.30;;;0.97;;
16075;SDS011;8142;48.242;11.644;2023-04-24T00:42:03;1.50;;;1.40;;
16075;SDS011;8142;48.242;11.644;2023-04-24T00:44:32;1.33;;;1.23;;
16075;SDS011;8142;48.242;11.644;2023-04-24T00:46:59;1.70;;;1.27;;
16075;SDS011;8142;48.242;11.644;2023-04-24T00:49:26;1.10;;;1.00;;
16075;SDS011;8142;48.242;11.644;2023-04-24T00:51:52;1.90;;;1.20;;
16075;SDS011;8142;48.242;11.644;2023-04-24T00:54:19;1.30;;;1.20;;
16075;SDS011;8142;48.242;11.644;2023-04-24T00:56:45;1.30;;;1.20;;
16075;SDS011;8142;48.242;11.644;2023-04-24T00:59:15;1.10;;;1.00;;
16075;SDS011;8142;48.242;11.644;2023-04-24T01:01:42;2.73;;;1.20;;
16075;SDS011;8142;48.242;11.644;2023-04-24T01:04:10;1.13;;;1.03;;
16075;SDS011;8142;48.242;11.644;2023-04-24T01:06:40;2.83;;;1.10;;
16075;SDS011;8142;48.242;11.644;2023-04-24T01:09:08;1.60;;;1.00;;
16075;SDS011;8142;48.242;11.644;2023-04-24T01:11:36;1.63;;;1.17;;
16075;SDS011;8142;48.242;11.644;2023-04-24T01:14:03;0.90;;;0.90;;
16075;SDS011;8142;48.242;11.644;2023-04-24T01:16:29;1.20;;;1.10;;
16075;SDS011;8142;48.242;11.644;2023-04-24T01:18:55;1.30;;;0.90;;
16075;SDS011;8142;48.242;11.644;2023-04-24T01:21:21;0.90;;;0.70;;
16075;SDS011;8142;48.242;11.644;2023-04-24T01:23:48;1.50;;;0.80;;
16075;SDS011;8142;48.242;11.644;2023-04-24T01:26:16;0.87;;;0.70;;
16075;SDS011;8142;48.242;11.644;2023-04-24T01:28:42;1.70;;;0.90;;
16075;SDS011;8142;48.242;11.644;2023-04-24T01:31:08;1.53;;;0.90;;
16075;SDS011;8142;48.242;11.644;2023-04-24T01:33:34;1.43;;;0.90;;
16075;SDS011;8142;48.242;11.644;2023-04-24T01:36:00;0.70;;;0.70;;
16075;SDS011;8142;48.242;11.644;2023-04-24T01:38:27;0.70;;;0.70;;
16075;SDS011;8142;48.242;11.644;2023-04-24T01:40:53;0.70;;;0.70;;
16075;SDS011;8142;48.242;11.644;2023-04-24T01:43:19;1.03;;;1.00;;
16075;SDS011;8142;48.242;11.644;2023-04-24T01:45:45;0.90;;;0.90;;
16075;SDS011;8142;48.242;11.644;2023-04-24T01:48:11;1.57;;;0.60;;
16075;SDS011;8142;48.242;11.644;2023-04-24T01:50:40;1.00;;;0.70;;
16075;SDS011;8142;48.242;11.644;2023-04-24T01:53:06;0.60;;;0.60;;
16075;SDS011;8142;48.242;11.644;2023-04-24T01:55:32;1.07;;;0.60;;
16075;SDS011;8142;48.242;11.644;2023-04-24T01:57:58;0.70;;;0.63;;
16075;SDS011;8142;48.242;11.644;2023-04-24T02:00:26;0.80;;;0.80;;
16075;SDS011;8142;48.242;11.644;2023-04-24T02:02:51;2.00;;;0.73;;
16075;SDS011;8142;48.242;11.644;2023-04-24T02:05:17;0.43;;;0.43;;
16075;SDS011;8142;48.242;11.644;2023-04-24T02:07:43;0.83;;;0.60;;
16075;SDS011;8142;48.242;11.644;2023-04-24T02:10:09;0.77;;;0.70;;
16075;SDS011;8142;48.242;11.644;2023-04-24T02:12:36;1.20;;;0.63;;
16075;SDS011;8142;48.242;11.644;2023-04-24T02:15:02;0.60;;;0.60;;
16075;SDS011;8142;48.242;11.644;2023-04-24T02:17:28;0.67;;;0.63;;
16075;SDS011;8142;48.242;11.644;2023-04-24T02:19:56;0.67;;;0.67;;
16075;SDS011;8142;48.242;11.644;2023-04-24T02:22:22;0.80;;;0.80;;
16075;SDS011;8142;48.242;11.644;2023-04-24T02:24:47;0.67;;;0.47;;
16075;SDS011;8142;48.242;11.644;2023-04-24T02:27:13;0.80;;;0.57;;
16075;SDS011;8142;48.242;11.644;2023-04-24T02:29:40;1.23;;;0.63;;
16075;SDS011;8142;48.242;11.644;2023-04-24T02:32:05;0.70;;;0.70;;
16075;SDS011;8142;48.242;11.644;2023-04-24T02:34:32;2.17;;;0.93;;
16075;SDS011;8142;48.242;11.644;2023-04-24T02:36:57;0.53;;;0.53;;
16075;SDS011;8142;48.242;11.644;2023-04-24T02:39:23;2.00;;;0.60;;
16075;SDS011;8142;48.242;11.644;2023-04-24T02:41:49;0.73;;;0.60;;
16075;SDS011;8142;48.242;11.644;2023-04-24T02:44:15;0.80;;;0.80;;
16075;SDS011;8142;48.242;11.644;2023-04-24T02:46:42;0.50;;;0.50;;
16075;SDS011;8142;48.242;11.644;2023-04-24T02:49:08;0.70;;;0.57;;
16075;SDS011;8142;48.242;11.644;2023-04-24T02:51:34;1.77;;;1.00;;
16075;SDS011;8142;48.242;11.644;2023-04-24T02:54:03;0.87;;;0.63;;
16075;SDS011;8142;48.242;11.644;2023-04-24T02:56:29;1.33;;;0.80;;
16075;SDS011;8142;48.242;11.644;2023-04-24T02:58:55;2.83;;;0.83;;
16075;SDS011;8142;48.242;11.644;2023-04-24T03:01:20;1.40;;;0.80;;
16075;SDS011;8142;48.242;11.644;2023-04-24T03:03:46;0.53;;;0.53;;
16075;SDS011;8142;48.242;11.644;2023-04-24T03:06:12;1.00;;;0.60;;
16075;SDS011;8142;48.242;11.644;2023-04-24T03:08:38;0.80;;;0.80;;
16075;SDS011;8142;48.242;11.644;2023-04-24T03:11:04;1.10;;;0.73;;
16075;SDS011;8142;48.242;11.644;2023-04-24T03:13:30;1.57;;;0.70;;
16075;SDS011;8142;48.242;11.644;2023-04-24T03:15:56;0.83;;;0.60;;
16075;SDS011;8142;48.242;11.644;2023-04-24T03:18:21;0.73;;;0.70;;
16075;SDS011;8142;48.242;11.644;2023-04-24T03:20:47;1.13;;;0.60;;
16075;SDS011;8142;48.242;11.644;2023-04-24T03:23:13;1.97;;;0.60;;
16075;SDS011;8142;48.242;11.644;2023-04-24T03:25:40;0.93;;;0.80;;
16075;SDS011;8142;48.242;11.644;2023-04-24T03:28:08;2.20;;;0.90;;
16075;SDS011;8142;48.242;11.644;2023-04-24T03:30:34;4.00;;;0.87;;
16075;SDS011;8142;48.242;11.644;2023-04-24T03:33:00;1.80;;;0.80;;
16075;SDS011;8142;48.242;11.644;2023-04-24T03:35:26;1.83;;;1.10;;
16075;SDS011;8142;48.242;11.644;2023-04-24T03:37:52;0.93;;;0.73;;
16075;SDS011;8142;48.242;11.644;2023-04-24T03:40:18;2.07;;;0.93;;
16075;SDS011;8142;48.242;11.644;2023-04-24T03:42:43;1.47;;;0.90;;
16075;SDS011;8142;48.242;11.644;2023-04-24T03:45:09;0.83;;;0.83;;
16075;SDS011;8142;48.242;11.644;2023-04-24T03:47:35;1.43;;;0.73;;
16075;SDS011;8142;48.242;11.644;2023-04-24T03:50:01;1.40;;;0.90;;
16075;SDS011;8142;48.242;11.644;2023-04-24T03:52:28;0.90;;;0.90;;
16075;SDS011;8142;48.242;11.644;2023-04-24T03:54:53;4.10;;;0.87;;
16075;SDS011;8142;48.242;11.644;2023-04-24T03:57:20;1.70;;;0.90;;
16075;SDS011;8142;48.242;11.644;2023-04-24T03:59:46;2.60;;;0.97;;
16075;SDS011;8142;48.242;11.644;2023-04-24T04:02:12;2.07;;;0.87;;
16075;SDS011;8142;48.242;11.644;2023-04-24T04:04:38;1.60;;;1.30;;
16075;SDS011;8142;48.242;11.644;2023-04-24T04:07:04;2.33;;;0.80;;
16075;SDS011;8142;48.242;11.644;2023-04-24T04:09:30;1.70;;;1.00;;
16075;SDS011;8142;48.242;11.644;2023-04-24T04:11:57;2.10;;;0.90;;
16075;SDS011;8142;48.242;11.644;2023-04-24T04:14:23;1.20;;;1.00;;
16075;SDS011;8142;48.242;11.644;2023-04-24T04:16:49;1.13;;;1.00;;
16075;SDS011;8142;48.242;11.644;2023-04-24T04:19:15;1.33;;;1.20;;
16075;SDS011;8142;48.242;11.644;2023-04-24T04:21:41;2.27;;;1.00;;
16075;SDS011;8142;48.242;11.644;2023-04-24T04:24:07;2.53;;;1.20;;
16075;SDS011;8142;48.242;11.644;2023-04-24T04:26:33;2.70;;;1.20;;
16075;SDS011;8142;48.242;11.644;2023-04-24T04:28:59;2.80;;;1.13;;
16075;SDS011;8142;48.242;11.644;2023-04-24T04:31:28;2.97;;;1.17;;
16075;SDS011;8142;48.242;11.644;2023-04-24T04:33:55;3.17;;;1.33;;
16075;SDS011;8142;48.242;11.644;2023-04-24T04:36:21;5.23;;;1.40;;
16075;SDS011;8142;48.242;11.644;2023-04-24T04:38:47;3.67;;;1.40;;
16075;SDS011;8142;48.242;11.644;2023-04-24T04:41:13;1.70;;;1.37;;
16075;SDS011;8142;48.242;11.644;2023-04-24T04:43:40;1.97;;;1.30;;
16075;SDS011;8142;48.242;11.644;2023-04-24T04:46:07;2.80;;;1.20;;
16075;SDS011;8142;48.242;11.644;2023-04-24T04:48:35;2.57;;;1.10;;
16075;SDS011;8142;48.242;11.644;2023-04-24T04:51:02;0.90;;;0.90;;
16075;SDS011;8142;48.242;11.644;2023-04-24T04:53:27;2.00;;;1.10;;
16075;SDS011;8142;48.242;11.644;2023-04-24T04:55:53;1.90;;;1.00;;
16075;SDS011;8142;48.242;11.644;2023-04-24T04:58:19;1.67;;;0.90;;
16075;SDS011;8142;48.242;11.644;2023-04-24T05:00:45;0.93;;;0.80;;
16075;SDS011;8142;48.242;11.644;2023-04-24T05:03:11;1.37;;;1.10;;
16075;SDS011;8142;48.242;11.644;2023-04-24T05:05:37;2.93;;;1.13;;
16075;SDS011;8142;48.242;11.644;2023-04-24T05:08:06;1.33;;;1.10;;
16075;SDS011;8142;48.242;11.644;2023-04-24T05:10:33;2.67;;;1.10;;
16075;SDS011;8142;48.242;11.644;2023-04-24T05:12:59;1.53;;;1.07;;
16075;SDS011;8142;48.242;11.644;2023-04-24T05:15:26;1.40;;;1.10;;
16075;SDS011;8142;48.242;11.644;2023-04-24T05:17:52;1.53;;;0.90;;
16075;SDS011;8142;48.242;11.644;2023-04-24T05:20:17;1.60;;;1.10;;
16075;SDS011;8142;48.242;11.644;2023-04-24T05:22:43;1.37;;;1.10;;
16075;SDS011;8142;48.242;11.644;2023-04-24T05:25:09;1.87;;;1.00;;
16075;SDS011;8142;48.242;11.644;2023-04-24T05:27:35;1.50;;;0.90;;
16075;SDS011;8142;48.242;11.644;2023-04-24T05:30:01;0.90;;;0.90;;
16075;SDS011;8142;48.242;11.644;2023-04-24T05:32:27;0.93;;;0.80;;
16075;SDS011;8142;48.242;11.644;2023-04-24T05:34:53;1.13;;;0.80;;
16075;SDS011;8142;48.242;11.644;2023-04-24T05:37:19;1.90;;;0.80;;
16075;SDS011;8142;48.242;11.644;2023-04-24T05:39:45;2.10;;;0.90;;
16075;SDS011;8142;48.242;11.644;2023-04-24T05:42:11;0.90;;;0.90;;
16075;SDS011;8142;48.242;11.644;2023-04-24T05:44:37;1.10;;;0.63;;
16075;SDS011;8142;48.242;11.644;2023-04-24T05:47:03;0.93;;;0.87;;
16075;SDS011;8142;48.242;11.644;2023-04-24T05:49:29;3.33;;;0.80;;
16075;SDS011;8142;48.242;11.644;2023-04-24T05:51:55;1.80;;;0.80;;
16075;SDS011;8142;48.242;11.644;2023-04-24T05:54:20;0.80;;;0.80;;
16075;SDS011;8142;48.242;11.644;2023-04-24T05:56:46;0.70;;;0.70;;
16075;SDS011;8142;48.242;11.644;2023-04-24T05:59:12;1.87;;;0.90;;
16075;SDS011;8142;48.242;11.644;2023-04-24T06:01:38;1.27;;;0.67;;
16075;SDS011;8142;48.242;11.644;2023-04-24T06:04:04;0.87;;;0.87;;
16075;SDS011;8142;48.242;11.644;2023-04-24T06:06:30;1.10;;;1.00;;
16075;SDS011;8142;48.242;11.644;2023-04-24T06:08:57;0.90;;;0.63;;
16075;SDS011;8142;48.242;11.644;2023-04-24T06:11:24;0.77;;;0.77;;
16075;SDS011;8142;48.242;11.644;2023-04-24T06:13:50;0.70;;;0.67;;
16075;SDS011;8142;48.242;11.644;2023-04-24T06:16:17;1.83;;;0.80;;
16075;SDS011;8142;48.242;11.644;2023-04-24T06:18:43;0.60;;;0.60;;
16075;SDS011;8142;48.242;11.644;2023-04-24T06:21:09;1.53;;;0.77;;
16075;SDS011;8142;48.242;11.644;2023-04-24T06:23:34;2.87;;;1.60;;
16075;SDS011;8142;48.242;11.644;2023-04-24T06:26:00;1.23;;;0.90;;
16075;SDS011;8142;48.242;11.644;2023-04-24T06:28:26;1.93;;;0.90;;
16075;SDS011;8142;48.242;11.644;2023-04-24T06:30:52;0.80;;;0.80;;
16075;SDS011;8142;48.242;11.644;2023-04-24T06:33:18;0.70;;;0.70;;
16075;SDS011;8142;48.242;11.644;2023-04-24T06:35:44;1.13;;;0.70;;
16075;SDS011;8142;48.242;11.644;2023-04-24T06:38:10;0.70;;;0.70;;
16075;SDS011;8142;48.242;11.644;2023-04-24T06:40:36;1.30;;;0.70;;
16075;SDS011;8142;48.242;11.644;2023-04-24T06:43:02;1.60;;;0.60;;
16075;SDS011;8142;48.242;11.644;2023-04-24T06:45:28;1.17;;;0.70;;
16075;SDS011;8142;48.242;11.644;2023-04-24T06:47:55;0.70;;;0.60;;
16075;SDS011;8142;48.242;11.644;2023-04-24T06:50:21;1.07;;;0.70;;
16075;SDS011;8142;48.242;11.644;2023-04-24T06:52:47;1.27;;;0.70;;
16075;SDS011;8142;48.242;11.644;2023-04-24T06:55:13;1.53;;;0.80;;
16075;SDS011;8142;48.242;11.644;2023-04-24T06:57:42;0.83;;;0.60;;
16075;SDS011;8142;48.242;11.644;2023-04-24T07:00:12;0.87;;;0.50;;
16075;SDS011;8142;48.242;11.644;2023-04-24T07:02:38;0.80;;;0.80;;
16075;SDS011;8142;48.242;11.644;2023-04-24T07:05:04;0.67;;;0.60;;
16075;SDS011;8142;48.242;11.644;2023-04-24T07:07:30;0.57;;;0.50;;
16075;SDS011;8142;48.242;11.644;2023-04-24T07:09:56;0.53;;;0.53;;
16075;SDS011;8142;48.242;11.644;2023-04-24T07:12:22;0.60;;;0.60;;
16075;SDS011;8142;48.242;11.644;2023-04-24T07:14:50;0.87;;;0.63;;
16075;SDS011;8142;48.242;11.644;2023-04-24T07:17:16;1.17;;;0.67;;
16075;SDS011;8142;48.242;11.644;2023-04-24T07:19:42;0.57;;;0.50;;
16075;SDS011;8142;48.242;11.644;2023-04-24T07:22:08;0.60;;;0.60;;
16075;SDS011;8142;48.242;11.644;2023-04-24T07:24:36;0.83;;;0.57;;
16075;SDS011;8142;48.242;11.644;2023-04-24T07:27:02;0.73;;;0.60;;
16075;SDS011;8142;48.242;11.644;2023-04-24T07:29:29;0.70;;;0.60;;
16075;SDS011;8142;48.242;11.644;2023-04-24T07:31:55;0.57;;;0.57;;
16075;SDS011;8142;48.242;11.644;2023-04-24T07:34:21;0.70;;;0.43;;
16075;SDS011;8142;48.242;11.644;2023-04-24T07:36:47;2.30;;;0.60;;
16075;SDS011;8142;48.242;11.644;2023-04-24T07:39:13;0.90;;;0.70;;
16075;SDS011;8142;48.242;11.644;2023-04-24T07:41:39;2.33;;;0.90;;
16075;SDS011;8142;48.242;11.644;2023-04-24T07:44:05;1.07;;;0.77;;
16075;SDS011;8142;48.242;11.644;2023-04-24T07:46:31;0.93;;;0.80;;
16075;SDS011;8142;48.242;11.644;2023-04-24T07:48:57;1.10;;;0.50;;
16075;SDS011;8142;48.242;11.644;2023-04-24T07:51:24;2.33;;;0.70;;
16075;SDS011;8142;48.242;11.644;2023-04-24T07:53:52;2.30;;;0.60;;
16075;SDS011;8142;48.242;11.644;2023-04-24T07:56:20;1.07;;;0.50;;
16075;SDS011;8142;48.242;11.644;2023-04-24T07:58:46;1.13;;;0.57;;
16075;SDS011;8142;48.242;11.644;2023-04-24T08:01:12;1.33;;;0.70;;
16075;SDS011;8142;48.242;11.644;2023-04-24T08:03:38;0.63;;;0.63;;
16075;SDS011;8142;48.242;11.644;2023-04-24T08:06:04;0.70;;;0.60;;
16075;SDS011;8142;48.242;11.644;2023-04-24T08:08:30;1.40;;;0.50;;
16075;SDS011;8142;48.242;11.644;2023-04-24T08:10:56;0.50;;;0.50;;
16075;SDS011;8142;48.242;11.644;2023-04-24T08:13:22;0.80;;;0.80;;
16075;SDS011;8142;48.242;11.644;2023-04-24T08:15:48;0.50;;;0.50;;
16075;SDS011;8142;48.242;11.644;2023-04-24T08:18:14;0.57;;;0.50;;
16075;SDS011;8142;48.242;11.644;2023-04-24T08:20:41;1.70;;;0.50;;
16075;SDS011;8142;48.242;11.644;2023-04-24T08:23:07;0.60;;;0.60;;
16075;SDS011;8142;48.242;11.644;2023-04-24T08:25:32;2.03;;;0.60;;
16075;SDS011;8142;48.242;11.644;2023-04-24T08:28:01;1.70;;;0.50;;
16075;SDS011;8142;48.242;11.644;2023-04-24T08:30:29;0.87;;;0.87;;
16075;SDS011;8142;48.242;11.644;2023-04-24T08:32:55;1.27;;;0.70;;
16075;SDS011;8142;48.242;11.644;2023-04-24T08:35:21;0.90;;;0.60;;
16075;SDS011;8142;48.242;11.644;2023-04-24T08:37:48;1.83;;;0.60;;
16075;SDS011;8142;48.242;11.644;2023-04-24T08:40:15;0.43;;;0.43;;
16075;SDS011;8142;48.242;11.644;2023-04-24T08:42:44;0.80;;;0.60;;
16075;SDS011;8142;48.242;11.644;2023-04-24T08:45:11;0.93;;;0.60;;
16075;SDS011;8142;48.242;11.644;2023-04-24T08:47:38;0.57;;;0.50;;
16075;SDS011;8142;48.242;11.644;2023-04-24T08:50:05;1.23;;;0.80;;
16075;SDS011;8142;48.242;11.644;2023-04-24T08:52:33;2.73;;;0.77;;
16075;SDS011;8142;48.242;11.644;2023-04-24T08:55:00;1.60;;;0.77;;
16075;SDS011;8142;48.242;11.644;2023-04-24T08:57:29;1.30;;;0.80;;
16075;SDS011;8142;48.242;11.644;2023-04-24T08:59:56;1.13;;;0.80;;
16075;SDS011;8142;48.242;11.644;2023-04-24T09:02:23;0.70;;;0.70;;
16075;SDS011;8142;48.242;11.644;2023-04-24T09:04:51;0.90;;;0.90;;
16075;SDS011;8142;48.242;11.644;2023-04-24T09:07:19;2.73;;;1.00;;
16075;SDS011;8142;48.242;11.644;2023-04-24T09:09:47;1.13;;;0.90;;
16075;SDS011;8142;48.242;11.644;2023-04-24T09:12:15;0.93;;;0.93;;
16075;SDS011;8142;48.242;11.644;2023-04-24T09:14:42;1.87;;;1.00;;
16075;SDS011;8142;48.242;11.644;2023-04-24T09:17:10;1.60;;;1.20;;
16075;SDS011;8142;48.242;11.644;2023-04-24T09:19:37;1.43;;;1.00;;
16075;SDS011;8142;48.242;11.644;2023-04-24T09:22:06;1.77;;;1.30;;
16075;SDS011;8142;48.242;11.644;2023-04-24T09:24:33;2.40;;;1.07;;
16075;SDS011;8142;48.242;11.644;2023-04-24T09:27:00;1.30;;;1.00;;
16075;SDS011;8142;48.242;11.644;2023-04-24T09:29:29;1.30;;;1.20;;
16075;SDS011;8142;48.242;11.644;2023-04-24T09:31:57;2.30;;;1.10;;
16075;SDS011;8142;48.242;11.644;2023-04-24T09:34:23;3.03;;;1.20;;
16075;SDS011;8142;48.242;11.644;2023-04-24T09:36:51;1.20;;;1.10;;
16075;SDS011;8142;48.242;11.644;2023-04-24T09:39:18;2.63;;;1.30;;
16075;SDS011;8142;48.242;11.644;2023-04-24T09:44:18;2.00;;;1.20;;
16075;SDS011;8142;48.242;11.644;2023-04-24T09:46:50;1.87;;;1.10;;
16075;SDS011;8142;48.242;11.644;2023-04-24T09:49:25;2.63;;;1.30;;
16075;SDS011;8142;48.242;11.644;2023-04-24T09:51:52;2.90;;;1.20;;
16075;SDS011;8142;48.242;11.644;2023-04-24T09:54:28;1.93;;;1.40;;
16075;SDS011;8142;48.242;11.644;2023-04-24T09:56:55;1.30;;;1.20;;
16075;SDS011;8142;48.242;11.644;2023-04-24T09:59:21;1.93;;;1.40;;
16075;SDS011;8142;48.242;11.644;2023-04-24T10:01:48;1.70;;;1.40;;
16075;SDS011;8142;48.242;11.644;2023-04-24T10:04:15;2.23;;;1.53;;
16075;SDS011;8142;48.242;11.644;2023-04-24T10:06:42;1.20;;;1.20;;
16075;SDS011;8142;48.242;11.644;2023-04-24T10:09:08;3.20;;;1.50;;
16075;SDS011;8142;48.242;11.644;2023-04-24T10:11:37;2.60;;;1.43;;
16075;SDS011;8142;48.242;11.644;2023-04-24T10:14:07;1.40;;;1.30;;
16075;SDS011;8142;48.242;11.644;2023-04-24T10:16:36;1.60;;;1.30;;
16075;SDS011;8142;48.242;11.644;2023-04-24T10:19:03;1.93;;;1.27;;
16075;SDS011;8142;48.242;11.644;2023-04-24T10:21:29;2.17;;;1.70;;
16075;SDS011;8142;48.242;11.644;2023-04-24T10:23:56;1.30;;;1.20;;
16075;SDS011;8142;48.242;11.644;2023-04-24T10:26:23;1.60;;;1.20;;
16075;SDS011;8142;48.242;11.644;2023-04-24T10:28:49;3.37;;;1.60;;
16075;SDS011;8142;48.242;11.644;2023-04-24T10:31:16;1.30;;;1.20;;
16075;SDS011;8142;48.242;11.644;2023-04-24T10:33:43;1.70;;;1.40;;
16075;SDS011;8142;48.242;11.644;2023-04-24T10:36:10;2.43;;;1.50;;
16075;SDS011;8142;48.242;11.644;2023-04-24T10:38:39;1.53;;;1.30;;
16075;SDS011;8142;48.242;11.644;2023-04-24T10:41:11;2.10;;;1.30;;
16075;SDS011;8142;48.242;11.644;2023-04-24T10:43:48;1.57;;;1.47;;
16075;SDS011;8142;48.242;11.644;2023-04-24T10:46:29;3.80;;;1.40;;
16075;SDS011;8142;48.242;11.644;2023-04-24T10:48:55;3.00;;;1.40;;
16075;SDS011;8142;48.242;11.644;2023-04-24T10:51:23;1.30;;;1.20;;
16075;SDS011;8142;48.242;11.644;2023-04-24T10:53:51;2.00;;;1.53;;
16075;SDS011;8142;48.242;11.644;2023-04-24T10:56:17;1.47;;;1.37;;
16075;SDS011;8142;48.242;11.644;2023-04-24T10:58:44;1.73;;;1.30;;
16075;SDS011;8142;48.242;11.644;2023-04-24T11:01:25;2.27;;;1.20;;
16075;SDS011;8142;48.242;11.644;2023-04-24T11:03:58;1.57;;;0.90;;
16075;SDS011;8142;48.242;11.644;2023-04-24T11:06:32;1.77;;;0.70;;
16075;SDS011;8142;48.242;11.644;2023-04-24T11:09:04;2.07;;;0.87;;
16075;SDS011;8142;48.242;11.644;2023-04-24T11:11:38;2.50;;;1.20;;
16075;SDS011;8142;48.242;11.644;2023-04-24T11:14:09;1.00;;;1.00;;
16075;SDS011;8142;48.242;11.644;2023-04-24T11:16:42;2.67;;;1.10;;
16075;SDS011;8142;48.242;11.644;2023-04-24T11:27:05;1.67;;;1.10;;
16075;SDS011;8142;48.242;11.644;2023-04-24T11:29:43;1.53;;;1.00;;
16075;SDS011;8142;48.242;11.644;2023-04-24T11:34:48;1.40;;;1.10;;
16075;SDS011;8142;48.242;11.644;2023-04-24T11:37:15;1.33;;;1.10;;
16075;SDS011;8142;48.242;11.644;2023-04-24T11:39:42;1.10;;;1.10;;
16075;SDS011;8142;48.242;11.644;2023-04-24T11:42:12;1.60;;;1.03;;
16075;SDS011;8142;48.242;11.644;2023-04-24T11:44:41;1.13;;;1.13;;
16075;SDS011;8142;48.242;11.644;2023-04-24T11:47:08;1.30;;;0.97;;
16075;SDS011;8142;48.242;11.644;2023-04-24T11:49:36;1.00;;;1.00;;
16075;SDS011;8142;48.242;11.644;2023-04-24T11:52:02;1.97;;;1.13;;
16075;SDS011;8142;48.242;11.644;2023-04-24T11:54:29;1.40;;;1.20;;
16075;SDS011;8142;48.242;11.644;2023-04-24T11:56:55;1.20;;;1.10;;
16075;SDS011;8142;48.242;11.644;2023-04-24T11:59:22;1.00;;;1.00;;
16075;SDS011;8142;48.242;11.644;2023-04-24T12:01:48;1.50;;;1.40;;
16075;SDS011;8142;48.242;11.644;2023-04-24T12:04:15;1.40;;;1.30;;
16075;SDS011;8142;48.242;11.644;2023-04-24T12:06:58;0.93;;;0.93;;
16075;SDS011;8142;48.242;11.644;2023-04-24T12:09:25;1.60;;;1.40;;
16075;SDS011;8142;48.242;11.644;2023-04-24T12:11:54;1.40;;;1.30;;
16075;SDS011;8142;48.242;11.644;2023-04-24T12:14:22;2.60;;;1.50;;
16075;SDS011;8142;48.242;11.644;2023-04-24T12:16:49;2.00;;;1.37;;
16075;SDS011;8142;48.242;11.644;2023-04-24T12:19:22;1.50;;;1.40;;
16075;SDS011;8142;48.242;11.644;2023-04-24T12:21:58;1.57;;;1.40;;
16075;SDS011;8142;48.242;11.644;2023-04-24T12:24:29;1.53;;;1.40;;
16075;SDS011;8142;48.242;11.644;2023-04-24T12:26:56;1.33;;;1.10;;
16075;SDS011;8142;48.242;11.644;2023-04-24T12:29:23;1.73;;;1.30;;
16075;SDS011;8142;48.242;11.644;2023-04-24T12:31:51;2.97;;;1.23;;
16075;SDS011;8142;48.242;11.644;2023-04-24T12:34:20;1.80;;;1.40;;
16075;SDS011;8142;48.242;11.644;2023-04-24T12:36:47;2.80;;;1.20;;
16075;SDS011;8142;48.242;11.644;2023-04-24T12:39:14;1.30;;;1.20;;
16075;SDS011;8142;48.242;11.644;2023-04-24T12:41:57;1.27;;;1.20;;
16075;SDS011;8142;48.242;11.644;2023-04-24T12:44:31;1.60;;;1.20;;
16075;SDS011;8142;48.242;11.644;2023-04-24T12:47:02;1.43;;;1.20;;
16075;SDS011;8142;48.242;11.644;2023-04-24T12:49:29;9.03;;;2.30;;
16075;SDS011;8142;48.242;11.644;2023-04-24T12:51:56;2.03;;;1.20;;
16075;SDS011;8142;48.242;11.644;2023-04-24T12:54:22;1.20;;;1.10;;
16075;SDS011;8142;48.242;11.644;2023-04-24T12:56:47;2.43;;;1.50;;
16075;SDS011;8142;48.242;11.644;2023-04-24T12:59:13;6.57;;;1.40;;
16075;SDS011;8142;48.242;11.644;2023-04-24T13:01:40;1.33;;;1.10;;
16075;SDS011;8142;48.242;11.644;2023-04-24T13:04:06;5.53;;;1.10;;
16075;SDS011;8142;48.242;11.644;2023-04-24T13:06:32;1.10;;;0.90;;
16075;SDS011;8142;48.242;11.644;2023-04-24T13:08:59;4.43;;;1.40;;
16075;SDS011;8142;48.242;11.644;2023-04-24T13:11:25;2.60;;;1.27;;
16075;SDS011;8142;48.242;11.644;2023-04-24T13:13:51;1.50;;;1.30;;
16075;SDS011;8142;48.242;11.644;2023-04-24T13:16:17;2.50;;;1.50;;
16075;SDS011;8142;48.242;11.644;2023-04-24T13:18:43;1.77;;;1.27;;
16075;SDS011;8142;48.242;11.644;2023-04-24T13:21:08;1.67;;;1.50;;
16075;SDS011;8142;48.242;11.644;2023-04-24T13:23:34;1.60;;;1.40;;
16075;SDS011;8142;48.242;11.644;2023-04-24T13:26:00;1.63;;;1.30;;
16075;SDS011;8142;48.242;11.644;2023-04-24T13:28:26;1.30;;;1.20;;
16075;SDS011;8142;48.242;11.644;2023-04-24T13:30:53;1.30;;;1.20;;
16075;SDS011;8142;48.242;11.644;2023-04-24T13:33:18;2.73;;;1.40;;
16075;SDS011;8142;48.242;11.644;2023-04-24T13:35:44;2.33;;;1.27;;
16075;SDS011;8142;48.242;11.644;2023-04-24T13:38:10;1.97;;;1.30;;
16075;SDS011;8142;48.242;11.644;2023-04-24T13:40:36;2.07;;;1.40;;
16075;SDS011;8142;48.242;11.644;2023-04-24T13:43:02;2.87;;;1.60;;
16075;SDS011;8142;48.242;11.644;2023-04-24T13:45:28;2.80;;;1.33;;
16075;SDS011;8142;48.242;11.644;2023-04-24T13:47:54;3.23;;;1.40;;
16075;SDS011;8142;48.242;11.644;2023-04-24T13:50:22;2.63;;;1.40;;
16075;SDS011;8142;48.242;11.644;2023-04-24T13:52:48;2.90;;;1.70;;
16075;SDS011;8142;48.242;11.644;2023-04-24T13:55:14;1.27;;;1.17;;
16075;SDS011;8142;48.242;11.644;2023-04-24T13:57:40;1.33;;;1.27;;
16075;SDS011;8142;48.242;11.644;2023-04-24T14:00:06;1.30;;;1.20;;
16075;SDS011;8142;48.242;11.644;2023-04-24T14:02:35;1.50;;;1.40;;
16075;SDS011;8142;48.242;11.644;2023-04-24T14:05:02;1.93;;;1.40;;
16075;SDS011;8142;48.242;11.644;2023-04-24T14:07:28;1.33;;;1.23;;
16075;SDS011;8142;48.242;11.644;2023-04-24T14:09:55;1.80;;;1.37;;
16075;SDS011;8142;48.242;11.644;2023-04-24T14:12:22;5.43;;;1.30;;
16075;SDS011;8142;48.242;11.644;2023-04-24T14:14:47;1.77;;;1.37;;
16075;SDS011;8142;48.242;11.644;2023-04-24T14:17:14;4.00;;;1.40;;
16075;SDS011;8142;48.242;11.644;2023-04-24T14:19:40;1.53;;;1.30;;
16075;SDS011;8142;48.242;11.644;2023-04-24T14:22:05;6.00;;;1.30;;
16075;SDS011;8142;48.242;11.644;2023-04-24T14:24:31;2.93;;;1.57;;
16075;SDS011;8142;48.242;11.644;2023-04-24T14:26:57;2.10;;;1.10;;
16075;SDS011;8142;48.242;11.644;2023-04-24T14:29:23;1.77;;;1.20;;
16075;SDS011;8142;48.242;11.644;2023-04-24T14:31:51;2.50;;;1.40;;
16075;SDS011;8142;48.242;11.644;2023-04-24T14:34:16;2.30;;;1.50;;
16075;SDS011;8142;48.242;11.644;2023-04-24T14:36:43;2.70;;;1.20;;
16075;SDS011;8142;48.242;11.644;2023-04-24T14:39:09;1.53;;;1.23;;
16075;SDS011;8142;48.242;11.644;2023-04-24T14:41:35;1.67;;;1.30;;
16075;SDS011;8142;48.242;11.644;2023-04-24T14:44:02;2.53;;;1.50;;
16075;SDS011;8142;48.242;11.644;2023-04-24T14:46:31;1.73;;;1.40;;
16075;SDS011;8142;48.242;11.644;2023-04-24T14:48:57;2.83;;;1.40;;
16075;SDS011;8142;48.242;11.644;2023-04-24T14:51:23;1.93;;;1.50;;
16075;SDS011;8142;48.242;11.644;2023-04-24T14:53:50;1.53;;;1.27;;
16075;SDS011;8142;48.242;11.644;2023-04-24T14:56:16;1.60;;;1.50;;
16075;SDS011;8142;48.242;11.644;2023-04-24T14:58:42;1.37;;;1.27;;